sensor_id;sensor_type;location;lat;lon;timestamp;temperature;humidity
16825;DHT22;8529;48.108;-1.706;2022-07-29T00:00:12;21.30;89.20
16825;DHT22;8529;48.108;-1.706;2022-07-29T00:02:39;21.30;89.30
16825;DHT22;8529;48.108;-1.706;2022-07-29T00:05:07;21.30;89.30
16825;DHT22;8529;48.108;-1.706;2022-07-29T00:07:36;21.30;89.30
16825;DHT22;8529;48.108;-1.706;2022-07-29T00:10:03;21.30;89.30
16825;DHT22;8529;48.108;-1.706;2022-07-29T00:12:30;21.30;89.30
16825;DHT22;8529;48.108;-1.706;2022-07-29T00:14:57;21.30;89.20
16825;DHT22;8529;48.108;-1.706;2022-07-29T00:17:25;21.30;89.30
16825;DHT22;8529;48.108;-1.706;2022-07-29T00:19:52;21.40;89.50
16825;DHT22;8529;48.108;-1.706;2022-07-29T00:22:19;21.30;89.30
16825;DHT22;8529;48.108;-1.706;2022-07-29T00:24:48;21.30;89.40
16825;DHT22;8529;48.108;-1.706;2022-07-29T00:27:15;21.30;89.40
16825;DHT22;8529;48.108;-1.706;2022-07-29T00:29:42;21.30;89.40
16825;DHT22;8529;48.108;-1.706;2022-07-29T00:32:09;21.30;89.40
16825;DHT22;8529;48.108;-1.706;2022-07-29T00:34:36;21.20;89.60
16825;DHT22;8529;48.108;-1.706;2022-07-29T00:37:20;21.30;89.70
16825;DHT22;8529;48.108;-1.706;2022-07-29T00:39:49;21.30;89.70
16825;DHT22;8529;48.108;-1.706;2022-07-29T00:42:16;21.30;89.60
16825;DHT22;8529;48.108;-1.706;2022-07-29T00:44:43;21.20;89.50
16825;DHT22;8529;48.108;-1.706;2022-07-29T00:47:11;21.20;89.40
16825;DHT22;8529;48.108;-1.706;2022-07-29T00:49:39;21.20;89.70
16825;DHT22;8529;48.108;-1.706;2022-07-29T00:52:07;21.20;89.70
16825;DHT22;8529;48.108;-1.706;2022-07-29T00:54:35;21.20;89.50
16825;DHT22;8529;48.108;-1.706;2022-07-29T00:57:06;21.20;89.50
16825;DHT22;8529;48.108;-1.706;2022-07-29T00:59:34;21.20;89.30
16825;DHT22;8529;48.108;-1.706;2022-07-29T01:02:01;21.20;89.10
16825;DHT22;8529;48.108;-1.706;2022-07-29T01:04:29;21.20;89.20
16825;DHT22;8529;48.108;-1.706;2022-07-29T01:06:56;21.20;89.20
16825;DHT22;8529;48.108;-1.706;2022-07-29T01:09:23;21.20;89.00
16825;DHT22;8529;48.108;-1.706;2022-07-29T01:11:51;21.20;88.90
16825;DHT22;8529;48.108;-1.706;2022-07-29T01:14:21;21.20;89.10
16825;DHT22;8529;48.108;-1.706;2022-07-29T01:16:54;21.20;89.00
16825;DHT22;8529;48.108;-1.706;2022-07-29T01:19:45;21.20;88.70
16825;DHT22;8529;48.108;-1.706;2022-07-29T01:22:28;21.20;88.50
16825;DHT22;8529;48.108;-1.706;2022-07-29T01:25:10;21.10;88.40
16825;DHT22;8529;48.108;-1.706;2022-07-29T01:27:48;21.20;88.60
16825;DHT22;8529;48.108;-1.706;2022-07-29T01:30:19;21.20;88.30
16825;DHT22;8529;48.108;-1.706;2022-07-29T01:32:50;21.20;88.20
16825;DHT22;8529;48.108;-1.706;2022-07-29T01:35:23;21.10;88.00
16825;DHT22;8529;48.108;-1.706;2022-07-29T01:37:55;21.20;88.00
16825;DHT22;8529;48.108;-1.706;2022-07-29T01:40:27;21.20;87.60
16825;DHT22;8529;48.108;-1.706;2022-07-29T01:42:57;21.10;87.40
16825;DHT22;8529;48.108;-1.706;2022-07-29T01:45:32;21.10;87.10
16825;DHT22;8529;48.108;-1.706;2022-07-29T01:48:08;21.10;87.60
16825;DHT22;8529;48.108;-1.706;2022-07-29T01:50:46;21.10;86.60
16825;DHT22;8529;48.108;-1.706;2022-07-29T01:53:18;21.10;86.80
16825;DHT22;8529;48.108;-1.706;2022-07-29T01:55:48;21.10;86.50
16825;DHT22;8529;48.108;-1.706;2022-07-29T01:58:18;21.10;86.50
16825;DHT22;8529;48.108;-1.706;2022-07-29T02:00:48;21.10;85.80
16825;DHT22;8529;48.108;-1.706;2022-07-29T02:03:17;21.20;85.70
16825;DHT22;8529;48.108;-1.706;2022-07-29T02:05:46;21.20;85.20
16825;DHT22;8529;48.108;-1.706;2022-07-29T02:08:15;21.20;85.40
16825;DHT22;8529;48.108;-1.706;2022-07-29T02:10:43;21.20;85.10
16825;DHT22;8529;48.108;-1.706;2022-07-29T02:13:12;21.20;84.40
16825;DHT22;8529;48.108;-1.706;2022-07-29T02:15:42;21.20;84.30
16825;DHT22;8529;48.108;-1.706;2022-07-29T02:18:14;21.20;84.20
16825;DHT22;8529;48.108;-1.706;2022-07-29T02:20:45;21.20;84.00
16825;DHT22;8529;48.108;-1.706;2022-07-29T02:23:19;21.20;83.70
16825;DHT22;8529;48.108;-1.706;2022-07-29T02:25:48;21.20;84.00
16825;DHT22;8529;48.108;-1.706;2022-07-29T02:28:16;21.20;83.50
16825;DHT22;8529;48.108;-1.706;2022-07-29T02:30:44;21.20;83.10
16825;DHT22;8529;48.108;-1.706;2022-07-29T02:33:15;21.20;83.00
16825;DHT22;8529;48.108;-1.706;2022-07-29T02:35:45;21.20;82.70
16825;DHT22;8529;48.108;-1.706;2022-07-29T02:38:15;21.20;82.40
16825;DHT22;8529;48.108;-1.706;2022-07-29T02:41:02;21.20;82.30
16825;DHT22;8529;48.108;-1.706;2022-07-29T02:43:30;21.20;82.60
16825;DHT22;8529;48.108;-1.706;2022-07-29T02:45:59;21.20;82.40
16825;DHT22;8529;48.108;-1.706;2022-07-29T02:48:36;21.20;82.20
16825;DHT22;8529;48.108;-1.706;2022-07-29T02:51:08;21.20;81.90
16825;DHT22;8529;48.108;-1.706;2022-07-29T02:53:38;21.20;82.00
16825;DHT22;8529;48.108;-1.706;2022-07-29T02:56:10;21.20;81.90
16825;DHT22;8529;48.108;-1.706;2022-07-29T02:58:40;21.20;82.00
16825;DHT22;8529;48.108;-1.706;2022-07-29T03:01:11;21.20;81.80
16825;DHT22;8529;48.108;-1.706;2022-07-29T03:03:42;21.20;81.70
16825;DHT22;8529;48.108;-1.706;2022-07-29T03:06:12;21.20;81.70
16825;DHT22;8529;48.108;-1.706;2022-07-29T03:08:40;21.10;81.50
16825;DHT22;8529;48.108;-1.706;2022-07-29T03:11:08;21.10;81.60
16825;DHT22;8529;48.108;-1.706;2022-07-29T03:13:35;21.10;81.90
16825;DHT22;8529;48.108;-1.706;2022-07-29T03:16:03;21.10;81.80
16825;DHT22;8529;48.108;-1.706;2022-07-29T03:18:31;21.10;81.80
16825;DHT22;8529;48.108;-1.706;2022-07-29T03:21:00;21.10;81.80
16825;DHT22;8529;48.108;-1.706;2022-07-29T03:23:26;21.10;82.10
16825;DHT22;8529;48.108;-1.706;2022-07-29T03:25:54;21.10;81.80
16825;DHT22;8529;48.108;-1.706;2022-07-29T03:28:21;21.10;82.00
16825;DHT22;8529;48.108;-1.706;2022-07-29T03:30:49;21.10;82.00
16825;DHT22;8529;48.108;-1.706;2022-07-29T03:33:16;21.10;82.20
16825;DHT22;8529;48.108;-1.706;2022-07-29T03:35:43;21.10;82.20
16825;DHT22;8529;48.108;-1.706;2022-07-29T03:38:11;21.10;82.40
16825;DHT22;8529;48.108;-1.706;2022-07-29T03:40:43;21.10;82.00
16825;DHT22;8529;48.108;-1.706;2022-07-29T03:43:11;21.10;81.60
16825;DHT22;8529;48.108;-1.706;2022-07-29T03:45:41;21.10;81.90
16825;DHT22;8529;48.108;-1.706;2022-07-29T03:48:14;21.10;81.80
16825;DHT22;8529;48.108;-1.706;2022-07-29T03:50:42;21.00;81.70
16825;DHT22;8529;48.108;-1.706;2022-07-29T03:53:10;21.00;81.70
16825;DHT22;8529;48.108;-1.706;2022-07-29T03:55:41;21.00;82.00
16825;DHT22;8529;48.108;-1.706;2022-07-29T03:58:09;21.00;82.30
16825;DHT22;8529;48.108;-1.706;2022-07-29T04:00:37;21.00;83.00
16825;DHT22;8529;48.108;-1.706;2022-07-29T04:03:05;21.00;82.30
16825;DHT22;8529;48.108;-1.706;2022-07-29T04:05:32;21.00;82.50
16825;DHT22;8529;48.108;-1.706;2022-07-29T04:07:59;21.00;82.60
16825;DHT22;8529;48.108;-1.706;2022-07-29T04:10:28;21.00;82.60
16825;DHT22;8529;48.108;-1.706;2022-07-29T04:12:54;21.00;83.10
16825;DHT22;8529;48.108;-1.706;2022-07-29T04:15:21;21.00;84.20
16825;DHT22;8529;48.108;-1.706;2022-07-29T04:17:48;21.00;83.90
16825;DHT22;8529;48.108;-1.706;2022-07-29T04:20:15;21.00;84.10
16825;DHT22;8529;48.108;-1.706;2022-07-29T04:22:42;20.90;84.30
16825;DHT22;8529;48.108;-1.706;2022-07-29T04:25:09;20.90;84.50
16825;DHT22;8529;48.108;-1.706;2022-07-29T04:27:38;20.90;84.60
16825;DHT22;8529;48.108;-1.706;2022-07-29T04:30:25;20.90;84.60
16825;DHT22;8529;48.108;-1.706;2022-07-29T04:32:52;20.90;84.60
16825;DHT22;8529;48.108;-1.706;2022-07-29T04:35:19;20.90;84.90
16825;DHT22;8529;48.108;-1.706;2022-07-29T04:37:46;20.80;84.90
16825;DHT22;8529;48.108;-1.706;2022-07-29T04:40:13;20.80;85.20
16825;DHT22;8529;48.108;-1.706;2022-07-29T04:42:41;20.80;85.20
16825;DHT22;8529;48.108;-1.706;2022-07-29T04:45:09;20.80;85.40
16825;DHT22;8529;48.108;-1.706;2022-07-29T04:47:35;20.80;85.30
16825;DHT22;8529;48.108;-1.706;2022-07-29T04:50:03;20.80;85.50
16825;DHT22;8529;48.108;-1.706;2022-07-29T04:52:30;20.80;85.60
16825;DHT22;8529;48.108;-1.706;2022-07-29T04:54:57;20.80;85.90
16825;DHT22;8529;48.108;-1.706;2022-07-29T04:57:24;20.80;85.70
16825;DHT22;8529;48.108;-1.706;2022-07-29T04:59:53;20.80;86.20
16825;DHT22;8529;48.108;-1.706;2022-07-29T05:02:20;20.80;85.90
16825;DHT22;8529;48.108;-1.706;2022-07-29T05:04:47;20.80;86.00
16825;DHT22;8529;48.108;-1.706;2022-07-29T05:07:14;20.80;86.00
16825;DHT22;8529;48.108;-1.706;2022-07-29T05:09:41;20.80;86.00
16825;DHT22;8529;48.108;-1.706;2022-07-29T05:12:08;20.80;86.40
16825;DHT22;8529;48.108;-1.706;2022-07-29T05:14:35;20.80;86.00
16825;DHT22;8529;48.108;-1.706;2022-07-29T05:17:03;20.90;86.10
16825;DHT22;8529;48.108;-1.706;2022-07-29T05:19:30;20.90;85.90
16825;DHT22;8529;48.108;-1.706;2022-07-29T05:21:58;20.90;85.80
16825;DHT22;8529;48.108;-1.706;2022-07-29T05:24:25;20.90;85.60
16825;DHT22;8529;48.108;-1.706;2022-07-29T05:26:52;20.90;85.50
16825;DHT22;8529;48.108;-1.706;2022-07-29T05:29:19;20.90;85.70
16825;DHT22;8529;48.108;-1.706;2022-07-29T05:31:46;20.90;85.80
16825;DHT22;8529;48.108;-1.706;2022-07-29T05:34:14;20.90;85.90
16825;DHT22;8529;48.108;-1.706;2022-07-29T05:36:41;20.90;85.40
16825;DHT22;8529;48.108;-1.706;2022-07-29T05:39:08;20.90;85.20
16825;DHT22;8529;48.108;-1.706;2022-07-29T05:41:35;21.00;85.00
16825;DHT22;8529;48.108;-1.706;2022-07-29T05:44:02;21.00;85.00
16825;DHT22;8529;48.108;-1.706;2022-07-29T05:46:29;21.00;85.40
16825;DHT22;8529;48.108;-1.706;2022-07-29T05:48:56;21.10;85.10
16825;DHT22;8529;48.108;-1.706;2022-07-29T05:51:24;21.10;85.10
16825;DHT22;8529;48.108;-1.706;2022-07-29T05:53:51;21.10;84.80
16825;DHT22;8529;48.108;-1.706;2022-07-29T05:56:18;21.10;84.70
16825;DHT22;8529;48.108;-1.706;2022-07-29T05:58:45;21.10;84.70
16825;DHT22;8529;48.108;-1.706;2022-07-29T06:01:12;21.10;84.50
16825;DHT22;8529;48.108;-1.706;2022-07-29T06:03:39;21.10;84.60
16825;DHT22;8529;48.108;-1.706;2022-07-29T06:06:06;21.10;84.20
16825;DHT22;8529;48.108;-1.706;2022-07-29T06:08:35;21.10;84.40
16825;DHT22;8529;48.108;-1.706;2022-07-29T06:11:03;21.10;84.60
16825;DHT22;8529;48.108;-1.706;2022-07-29T06:13:31;21.10;84.90
16825;DHT22;8529;48.108;-1.706;2022-07-29T06:15:57;21.10;84.70
16825;DHT22;8529;48.108;-1.706;2022-07-29T06:18:24;21.20;85.40
16825;DHT22;8529;48.108;-1.706;2022-07-29T06:20:51;21.20;85.20
16825;DHT22;8529;48.108;-1.706;2022-07-29T06:23:18;21.20;84.70
16825;DHT22;8529;48.108;-1.706;2022-07-29T06:25:47;21.20;84.40
16825;DHT22;8529;48.108;-1.706;2022-07-29T06:28:14;21.30;85.20
16825;DHT22;8529;48.108;-1.706;2022-07-29T06:30:41;21.30;84.60
16825;DHT22;8529;48.108;-1.706;2022-07-29T06:33:08;21.30;84.20
16825;DHT22;8529;48.108;-1.706;2022-07-29T06:35:35;21.40;84.10
16825;DHT22;8529;48.108;-1.706;2022-07-29T06:38:02;21.40;83.70
16825;DHT22;8529;48.108;-1.706;2022-07-29T06:40:29;21.40;83.90
16825;DHT22;8529;48.108;-1.706;2022-07-29T06:43:15;21.40;83.50
16825;DHT22;8529;48.108;-1.706;2022-07-29T06:45:42;21.50;83.80
16825;DHT22;8529;48.108;-1.706;2022-07-29T06:48:09;21.50;83.80
16825;DHT22;8529;48.108;-1.706;2022-07-29T06:50:36;21.60;83.90
16825;DHT22;8529;48.108;-1.706;2022-07-29T06:53:03;21.60;83.30
16825;DHT22;8529;48.108;-1.706;2022-07-29T06:55:30;21.60;83.20
16825;DHT22;8529;48.108;-1.706;2022-07-29T06:57:58;21.70;83.40
16825;DHT22;8529;48.108;-1.706;2022-07-29T07:00:26;21.70;83.20
16825;DHT22;8529;48.108;-1.706;2022-07-29T07:02:53;21.70;83.10
16825;DHT22;8529;48.108;-1.706;2022-07-29T07:05:20;21.80;83.00
16825;DHT22;8529;48.108;-1.706;2022-07-29T07:07:47;21.90;82.60
16825;DHT22;8529;48.108;-1.706;2022-07-29T07:10:13;21.90;82.30
16825;DHT22;8529;48.108;-1.706;2022-07-29T07:12:40;21.90;81.70
16825;DHT22;8529;48.108;-1.706;2022-07-29T07:15:08;21.90;81.10
16825;DHT22;8529;48.108;-1.706;2022-07-29T07:17:37;22.00;81.20
16825;DHT22;8529;48.108;-1.706;2022-07-29T07:20:05;22.00;81.30
16825;DHT22;8529;48.108;-1.706;2022-07-29T07:22:32;22.10;81.10
16825;DHT22;8529;48.108;-1.706;2022-07-29T07:24:59;22.10;81.30
16825;DHT22;8529;48.108;-1.706;2022-07-29T07:27:26;22.10;80.80
16825;DHT22;8529;48.108;-1.706;2022-07-29T07:29:53;22.20;80.30
16825;DHT22;8529;48.108;-1.706;2022-07-29T07:32:20;22.10;79.80
16825;DHT22;8529;48.108;-1.706;2022-07-29T07:34:48;22.20;80.00
16825;DHT22;8529;48.108;-1.706;2022-07-29T07:37:15;22.20;80.10
16825;DHT22;8529;48.108;-1.706;2022-07-29T07:39:44;22.20;79.70
16825;DHT22;8529;48.108;-1.706;2022-07-29T07:42:11;22.20;80.00
16825;DHT22;8529;48.108;-1.706;2022-07-29T07:44:39;22.20;80.40
16825;DHT22;8529;48.108;-1.706;2022-07-29T07:47:06;22.20;80.00
16825;DHT22;8529;48.108;-1.706;2022-07-29T07:49:33;22.20;79.50
16825;DHT22;8529;48.108;-1.706;2022-07-29T07:52:01;22.20;79.50
16825;DHT22;8529;48.108;-1.706;2022-07-29T07:54:28;22.20;80.00
16825;DHT22;8529;48.108;-1.706;2022-07-29T07:56:55;22.20;79.90
16825;DHT22;8529;48.108;-1.706;2022-07-29T07:59:22;22.30;80.90
16825;DHT22;8529;48.108;-1.706;2022-07-29T08:01:48;22.30;80.30
16825;DHT22;8529;48.108;-1.706;2022-07-29T08:04:16;22.40;80.30
16825;DHT22;8529;48.108;-1.706;2022-07-29T08:06:43;22.40;80.90
16825;DHT22;8529;48.108;-1.706;2022-07-29T08:09:11;22.40;80.40
16825;DHT22;8529;48.108;-1.706;2022-07-29T08:11:38;22.50;80.50
16825;DHT22;8529;48.108;-1.706;2022-07-29T08:14:05;22.50;80.30
16825;DHT22;8529;48.108;-1.706;2022-07-29T08:16:32;22.50;79.80
16825;DHT22;8529;48.108;-1.706;2022-07-29T08:18:59;22.50;80.40
16825;DHT22;8529;48.108;-1.706;2022-07-29T08:21:26;22.60;80.70
16825;DHT22;8529;48.108;-1.706;2022-07-29T08:23:52;22.60;81.00
16825;DHT22;8529;48.108;-1.706;2022-07-29T08:26:41;22.70;80.50
16825;DHT22;8529;48.108;-1.706;2022-07-29T08:29:09;22.80;80.30
16825;DHT22;8529;48.108;-1.706;2022-07-29T08:31:36;22.80;80.30
16825;DHT22;8529;48.108;-1.706;2022-07-29T08:34:04;22.80;80.20
16825;DHT22;8529;48.108;-1.706;2022-07-29T08:36:31;22.90;80.60
16825;DHT22;8529;48.108;-1.706;2022-07-29T08:38:59;22.90;80.90
16825;DHT22;8529;48.108;-1.706;2022-07-29T08:41:26;22.90;80.90
16825;DHT22;8529;48.108;-1.706;2022-07-29T08:43:55;23.00;80.80
16825;DHT22;8529;48.108;-1.706;2022-07-29T08:46:22;23.00;80.90
16825;DHT22;8529;48.108;-1.706;2022-07-29T08:48:49;23.10;80.10
16825;DHT22;8529;48.108;-1.706;2022-07-29T08:51:17;23.10;79.80
16825;DHT22;8529;48.108;-1.706;2022-07-29T08:53:45;23.10;80.30
16825;DHT22;8529;48.108;-1.706;2022-07-29T08:56:14;23.10;79.70
16825;DHT22;8529;48.108;-1.706;2022-07-29T08:58:42;23.10;79.50
16825;DHT22;8529;48.108;-1.706;2022-07-29T09:01:10;23.10;79.70
16825;DHT22;8529;48.108;-1.706;2022-07-29T09:03:39;23.10;80.10
16825;DHT22;8529;48.108;-1.706;2022-07-29T09:06:07;23.00;80.00
16825;DHT22;8529;48.108;-1.706;2022-07-29T09:08:34;23.10;80.00
16825;DHT22;8529;48.108;-1.706;2022-07-29T09:11:02;23.10;80.00
16825;DHT22;8529;48.108;-1.706;2022-07-29T09:13:29;23.10;80.00
16825;DHT22;8529;48.108;-1.706;2022-07-29T09:15:56;23.00;80.30
16825;DHT22;8529;48.108;-1.706;2022-07-29T09:18:35;23.00;80.50
16825;DHT22;8529;48.108;-1.706;2022-07-29T09:21:03;23.00;81.10
16825;DHT22;8529;48.108;-1.706;2022-07-29T09:24:06;23.00;81.70
16825;DHT22;8529;48.108;-1.706;2022-07-29T09:26:35;23.00;81.40
16825;DHT22;8529;48.108;-1.706;2022-07-29T09:29:09;23.10;81.40
16825;DHT22;8529;48.108;-1.706;2022-07-29T09:31:38;23.10;80.90
16825;DHT22;8529;48.108;-1.706;2022-07-29T09:34:07;23.10;80.90
16825;DHT22;8529;48.108;-1.706;2022-07-29T09:36:45;23.10;81.20
16825;DHT22;8529;48.108;-1.706;2022-07-29T09:39:12;23.10;81.30
16825;DHT22;8529;48.108;-1.706;2022-07-29T09:41:48;23.20;81.30
16825;DHT22;8529;48.108;-1.706;2022-07-29T09:44:16;23.20;81.10
16825;DHT22;8529;48.108;-1.706;2022-07-29T09:46:54;23.20;81.20
16825;DHT22;8529;48.108;-1.706;2022-07-29T09:49:23;23.30;81.30
16825;DHT22;8529;48.108;-1.706;2022-07-29T09:52:00;23.30;81.20
16825;DHT22;8529;48.108;-1.706;2022-07-29T09:54:27;23.40;81.40
16825;DHT22;8529;48.108;-1.706;2022-07-29T09:56:55;23.40;81.30
16825;DHT22;8529;48.108;-1.706;2022-07-29T09:59:22;23.40;81.30
16825;DHT22;8529;48.108;-1.706;2022-07-29T10:01:52;23.50;80.80
16825;DHT22;8529;48.108;-1.706;2022-07-29T10:04:19;23.50;80.80
16825;DHT22;8529;48.108;-1.706;2022-07-29T10:07:01;23.60;80.90
16825;DHT22;8529;48.108;-1.706;2022-07-29T10:09:31;23.60;80.80
16825;DHT22;8529;48.108;-1.706;2022-07-29T10:12:09;23.70;80.70
16825;DHT22;8529;48.108;-1.706;2022-07-29T10:14:37;23.80;80.50
16825;DHT22;8529;48.108;-1.706;2022-07-29T10:17:06;23.90;80.40
16825;DHT22;8529;48.108;-1.706;2022-07-29T10:19:34;24.10;80.30
16825;DHT22;8529;48.108;-1.706;2022-07-29T10:22:04;24.10;80.00
16825;DHT22;8529;48.108;-1.706;2022-07-29T10:24:32;24.20;80.20
16825;DHT22;8529;48.108;-1.706;2022-07-29T10:27:01;24.20;80.00
16825;DHT22;8529;48.108;-1.706;2022-07-29T10:29:29;24.30;80.20
16825;DHT22;8529;48.108;-1.706;2022-07-29T10:32:15;24.30;78.90
16825;DHT22;8529;48.108;-1.706;2022-07-29T10:35:15;24.40;78.80
16825;DHT22;8529;48.108;-1.706;2022-07-29T10:38:27;24.30;78.70
16825;DHT22;8529;48.108;-1.706;2022-07-29T10:41:03;24.40;78.60
16825;DHT22;8529;48.108;-1.706;2022-07-29T10:43:51;24.50;77.90
16825;DHT22;8529;48.108;-1.706;2022-07-29T10:46:20;24.60;77.60
16825;DHT22;8529;48.108;-1.706;2022-07-29T10:49:06;24.70;76.70
16825;DHT22;8529;48.108;-1.706;2022-07-29T10:52:04;24.60;76.80
16825;DHT22;8529;48.108;-1.706;2022-07-29T10:54:40;24.70;77.20
16825;DHT22;8529;48.108;-1.706;2022-07-29T10:57:16;24.70;77.60
16825;DHT22;8529;48.108;-1.706;2022-07-29T10:59:45;24.90;77.20
16825;DHT22;8529;48.108;-1.706;2022-07-29T11:02:41;24.90;77.40
16825;DHT22;8529;48.108;-1.706;2022-07-29T11:05:10;24.80;77.80
16825;DHT22;8529;48.108;-1.706;2022-07-29T11:07:38;24.80;78.00
16825;DHT22;8529;48.108;-1.706;2022-07-29T11:10:23;24.90;77.50
16825;DHT22;8529;48.108;-1.706;2022-07-29T11:12:50;24.90;77.40
16825;DHT22;8529;48.108;-1.706;2022-07-29T11:15:19;24.90;78.00
16825;DHT22;8529;48.108;-1.706;2022-07-29T11:18:06;25.00;77.90
16825;DHT22;8529;48.108;-1.706;2022-07-29T11:20:39;24.90;77.80
16825;DHT22;8529;48.108;-1.706;2022-07-29T11:23:26;24.90;77.80
16825;DHT22;8529;48.108;-1.706;2022-07-29T11:26:14;24.90;78.10
16825;DHT22;8529;48.108;-1.706;2022-07-29T11:28:56;24.90;78.30
16825;DHT22;8529;48.108;-1.706;2022-07-29T11:31:38;25.10;77.60
16825;DHT22;8529;48.108;-1.706;2022-07-29T11:34:24;25.00;77.80
16825;DHT22;8529;48.108;-1.706;2022-07-29T11:37:22;25.00;78.10
16825;DHT22;8529;48.108;-1.706;2022-07-29T11:40:11;24.90;78.20
16825;DHT22;8529;48.108;-1.706;2022-07-29T11:42:47;24.90;78.50
16825;DHT22;8529;48.108;-1.706;2022-07-29T11:45:16;24.90;78.70
16825;DHT22;8529;48.108;-1.706;2022-07-29T11:47:49;24.90;78.80
16825;DHT22;8529;48.108;-1.706;2022-07-29T11:50:17;25.00;78.90
16825;DHT22;8529;48.108;-1.706;2022-07-29T11:52:52;25.10;78.70
16825;DHT22;8529;48.108;-1.706;2022-07-29T11:55:21;25.20;78.30
16825;DHT22;8529;48.108;-1.706;2022-07-29T11:57:52;25.30;78.00
16825;DHT22;8529;48.108;-1.706;2022-07-29T12:00:28;25.30;78.00
16825;DHT22;8529;48.108;-1.706;2022-07-29T12:02:56;25.30;77.10
16825;DHT22;8529;48.108;-1.706;2022-07-29T12:05:32;25.30;77.50
16825;DHT22;8529;48.108;-1.706;2022-07-29T12:08:11;25.30;77.80
16825;DHT22;8529;48.108;-1.706;2022-07-29T12:10:39;25.30;77.80
16825;DHT22;8529;48.108;-1.706;2022-07-29T12:13:08;25.30;77.90
16825;DHT22;8529;48.108;-1.706;2022-07-29T12:15:35;25.40;78.00
16825;DHT22;8529;48.108;-1.706;2022-07-29T12:18:17;25.50;78.00
16825;DHT22;8529;48.108;-1.706;2022-07-29T12:20:46;25.50;77.90
16825;DHT22;8529;48.108;-1.706;2022-07-29T12:23:14;25.50;77.80
16825;DHT22;8529;48.108;-1.706;2022-07-29T12:25:43;25.60;77.50
16825;DHT22;8529;48.108;-1.706;2022-07-29T12:28:13;25.60;77.60
16825;DHT22;8529;48.108;-1.706;2022-07-29T12:30:45;25.70;76.70
16825;DHT22;8529;48.108;-1.706;2022-07-29T12:33:19;25.80;76.30
16825;DHT22;8529;48.108;-1.706;2022-07-29T12:35:48;25.70;77.00
16825;DHT22;8529;48.108;-1.706;2022-07-29T12:38:16;25.60;77.60
16825;DHT22;8529;48.108;-1.706;2022-07-29T12:40:44;25.50;77.50
16825;DHT22;8529;48.108;-1.706;2022-07-29T12:43:14;25.40;77.80
16825;DHT22;8529;48.108;-1.706;2022-07-29T12:45:44;25.40;77.80
16825;DHT22;8529;48.108;-1.706;2022-07-29T12:48:11;25.40;77.50
16825;DHT22;8529;48.108;-1.706;2022-07-29T12:50:53;25.40;76.90
16825;DHT22;8529;48.108;-1.706;2022-07-29T12:53:21;25.40;77.40
16825;DHT22;8529;48.108;-1.706;2022-07-29T12:55:50;25.40;76.80
16825;DHT22;8529;48.108;-1.706;2022-07-29T12:58:33;25.40;77.20
16825;DHT22;8529;48.108;-1.706;2022-07-29T13:01:01;25.40;76.90
16825;DHT22;8529;48.108;-1.706;2022-07-29T13:03:40;25.40;77.50
16825;DHT22;8529;48.108;-1.706;2022-07-29T13:06:31;25.40;77.70
16825;DHT22;8529;48.108;-1.706;2022-07-29T13:09:04;25.50;78.10
16825;DHT22;8529;48.108;-1.706;2022-07-29T13:11:31;25.50;78.20
16825;DHT22;8529;48.108;-1.706;2022-07-29T13:14:00;25.50;78.50
16825;DHT22;8529;48.108;-1.706;2022-07-29T13:16:27;25.50;78.60
16825;DHT22;8529;48.108;-1.706;2022-07-29T13:19:10;25.50;78.40
16825;DHT22;8529;48.108;-1.706;2022-07-29T13:21:38;25.60;78.40
16825;DHT22;8529;48.108;-1.706;2022-07-29T13:24:06;25.60;78.40
16825;DHT22;8529;48.108;-1.706;2022-07-29T13:26:34;25.70;78.20
16825;DHT22;8529;48.108;-1.706;2022-07-29T13:29:03;25.70;78.10
16825;DHT22;8529;48.108;-1.706;2022-07-29T13:31:30;25.70;78.00
16825;DHT22;8529;48.108;-1.706;2022-07-29T13:33:57;25.70;78.20
16825;DHT22;8529;48.108;-1.706;2022-07-29T13:36:24;25.70;78.60
16825;DHT22;8529;48.108;-1.706;2022-07-29T13:38:52;25.60;78.50
16825;DHT22;8529;48.108;-1.706;2022-07-29T13:41:19;25.50;78.60
16825;DHT22;8529;48.108;-1.706;2022-07-29T13:43:46;25.50;78.90
16825;DHT22;8529;48.108;-1.706;2022-07-29T13:46:14;25.50;79.00
16825;DHT22;8529;48.108;-1.706;2022-07-29T13:48:41;25.50;79.10
16825;DHT22;8529;48.108;-1.706;2022-07-29T13:51:08;25.50;79.20
16825;DHT22;8529;48.108;-1.706;2022-07-29T13:53:35;25.50;79.00
16825;DHT22;8529;48.108;-1.706;2022-07-29T13:56:02;25.40;79.10
16825;DHT22;8529;48.108;-1.706;2022-07-29T13:58:31;25.50;78.80
16825;DHT22;8529;48.108;-1.706;2022-07-29T14:00:58;25.50;79.10
16825;DHT22;8529;48.108;-1.706;2022-07-29T14:03:27;25.50;79.40
16825;DHT22;8529;48.108;-1.706;2022-07-29T14:05:54;25.50;79.30
16825;DHT22;8529;48.108;-1.706;2022-07-29T14:08:21;25.60;79.00
16825;DHT22;8529;48.108;-1.706;2022-07-29T14:10:48;25.60;78.90
16825;DHT22;8529;48.108;-1.706;2022-07-29T14:13:15;25.60;79.00
16825;DHT22;8529;48.108;-1.706;2022-07-29T14:15:42;25.60;78.00
16825;DHT22;8529;48.108;-1.706;2022-07-29T14:18:09;25.70;77.80
16825;DHT22;8529;48.108;-1.706;2022-07-29T14:20:37;25.70;78.50
16825;DHT22;8529;48.108;-1.706;2022-07-29T14:23:04;25.70;78.80
16825;DHT22;8529;48.108;-1.706;2022-07-29T14:25:31;25.70;78.70
16825;DHT22;8529;48.108;-1.706;2022-07-29T14:27:58;25.70;78.50
16825;DHT22;8529;48.108;-1.706;2022-07-29T14:30:25;25.70;77.90
16825;DHT22;8529;48.108;-1.706;2022-07-29T14:32:52;25.70;77.30
16825;DHT22;8529;48.108;-1.706;2022-07-29T14:35:19;25.70;77.90
16825;DHT22;8529;48.108;-1.706;2022-07-29T14:37:48;25.80;78.60
16825;DHT22;8529;48.108;-1.706;2022-07-29T14:40:14;25.80;77.90
16825;DHT22;8529;48.108;-1.706;2022-07-29T14:42:41;25.70;77.50
16825;DHT22;8529;48.108;-1.706;2022-07-29T14:45:09;25.70;77.60
16825;DHT22;8529;48.108;-1.706;2022-07-29T14:47:36;25.70;77.90
16825;DHT22;8529;48.108;-1.706;2022-07-29T14:50:04;25.70;77.40
16825;DHT22;8529;48.108;-1.706;2022-07-29T14:52:32;25.80;78.00
16825;DHT22;8529;48.108;-1.706;2022-07-29T14:55:00;25.70;78.60
16825;DHT22;8529;48.108;-1.706;2022-07-29T14:57:27;25.80;78.30
16825;DHT22;8529;48.108;-1.706;2022-07-29T14:59:54;25.80;78.90
16825;DHT22;8529;48.108;-1.706;2022-07-29T15:02:21;25.80;79.10
16825;DHT22;8529;48.108;-1.706;2022-07-29T15:04:48;25.80;78.60
16825;DHT22;8529;48.108;-1.706;2022-07-29T15:07:15;25.80;77.70
16825;DHT22;8529;48.108;-1.706;2022-07-29T15:09:42;25.90;77.00
16825;DHT22;8529;48.108;-1.706;2022-07-29T15:12:12;25.90;76.50
16825;DHT22;8529;48.108;-1.706;2022-07-29T15:14:39;25.90;76.90
16825;DHT22;8529;48.108;-1.706;2022-07-29T15:17:06;26.00;76.80
16825;DHT22;8529;48.108;-1.706;2022-07-29T15:19:33;26.00;76.00
16825;DHT22;8529;48.108;-1.706;2022-07-29T15:22:00;26.00;76.40
16825;DHT22;8529;48.108;-1.706;2022-07-29T15:24:27;26.00;76.70
16825;DHT22;8529;48.108;-1.706;2022-07-29T15:26:54;26.10;76.60
16825;DHT22;8529;48.108;-1.706;2022-07-29T15:29:22;26.10;76.20
16825;DHT22;8529;48.108;-1.706;2022-07-29T15:31:49;26.20;76.20
16825;DHT22;8529;48.108;-1.706;2022-07-29T15:34:16;26.20;77.40
16825;DHT22;8529;48.108;-1.706;2022-07-29T15:36:43;26.20;77.70
16825;DHT22;8529;48.108;-1.706;2022-07-29T15:39:10;26.10;77.80
16825;DHT22;8529;48.108;-1.706;2022-07-29T15:41:37;26.10;77.90
16825;DHT22;8529;48.108;-1.706;2022-07-29T15:44:04;26.10;77.10
16825;DHT22;8529;48.108;-1.706;2022-07-29T15:46:32;26.10;77.40